Time;durP1;ratioP1;P1;durP2;ratioP2;P2;SDS_P1;SDS_P2;PMS_P1;PMS_P2;Temp;Humidity;BMP_temperature;BMP_pressure;BME280_temperature;BME280_humidity;BME280_pressure;Samples;Min_cycle;Max_cycle;Signal;HPM_P1;HPM_P2
2022/07/08 00:02:01;;;;;;;5.68;1.58;;;;;;;12.68;nan;102945.75;5032599;28;20437;-56
2022/07/08 00:04:26;;;;;;;6.30;1.75;;;;;;;12.98;nan;103025.69;5032208;28;20095;-53
2022/07/08 00:06:51;;;;;;;9.23;2.00;;;;;;;12.96;nan;103022.16;5033420;28;20109;-54
2022/07/08 00:09:17;;;;;;;8.80;2.20;;;;;;;12.89;nan;103007.25;5032998;28;20036;-50
2022/07/08 00:11:42;;;;;;;8.85;2.45;;;;;;;12.91;nan;103012.50;5032660;28;20029;-52
2022/07/08 00:14:11;;;;;;;11.57;2.38;;;;;;;12.89;nan;103014.31;5033452;28;20041;-50
2022/07/08 00:16:40;;;;;;;7.35;2.10;;;;;;;12.60;nan;102966.94;5034563;28;20285;-52
2022/07/08 00:19:07;;;;;;;7.65;2.20;;;;;;;12.81;nan;103001.13;5034598;28;20041;-50
2022/07/08 00:21:32;;;;;;;6.68;2.50;;;;;;;12.37;nan;102938.03;5033251;28;20038;-52
2022/07/08 00:23:57;;;;;;;10.38;2.25;;;;;;;12.86;nan;103014.31;5034437;28;20099;-50
2022/07/08 00:26:23;;;;;;;10.13;2.10;;;;;;;12.87;nan;103016.94;5034304;28;20408;-52
2022/07/08 00:28:48;;;;;;;7.05;1.50;;;;;;;12.84;nan;103018.75;5033353;28;20037;-52
2022/07/08 00:31:13;;;;;;;6.68;2.13;;;;;;;12.86;nan;103009.91;5033408;28;20496;-50
2022/07/08 00:33:39;;;;;;;5.65;1.95;;;;;;;12.84;nan;103022.25;5034316;28;20041;-51
2022/07/08 00:36:04;;;;;;;9.43;2.60;;;;;;;12.81;nan;103010.84;5034441;28;20036;-52
2022/07/08 00:38:30;;;;;;;12.90;2.40;;;;;;;12.78;nan;103009.06;5034305;28;20464;-53
2022/07/08 00:40:55;;;;;;;7.68;1.83;;;;;;;12.75;nan;103010.88;5034491;28;20045;-50
2022/07/08 00:43:34;;;;;;;5.55;2.22;;;;;;;12.46;nan;102952.09;5034068;28;20034;-50
2022/07/08 00:46:00;;;;;;;8.07;3.10;;;;;;;12.42;nan;102969.72;5033065;28;20037;-51
2022/07/08 00:48:25;;;;;;;7.00;2.45;;;;;;;12.66;nan;103014.47;5032998;28;20029;-50
2022/07/08 00:50:50;;;;;;;6.85;2.17;;;;;;;12.61;nan;103023.31;5034187;28;20045;-52
2022/07/08 00:53:16;;;;;;;6.35;2.17;;;;;;;22.55;100.00;58178.75;5034274;28;20029;-55
2022/07/08 00:55:42;;;;;;;6.47;2.15;;;;;;;22.55;100.00;58178.75;5032844;28;20523;-52
2022/07/08 00:58:07;;;;;;;9.93;2.08;;;;;;;22.55;100.00;58178.75;5033805;28;20059;-54
2022/07/08 01:00:32;;;;;;;6.25;2.42;;;;;;;-142.64;100.00;58178.75;5033850;28;20069;-53
2022/07/08 01:02:58;;;;;;;11.60;2.35;;;;;;;-142.64;100.00;67425.97;5034025;28;20107;-55
2022/07/08 01:05:23;;;;;;;9.40;3.03;;;;;;;12.33;nan;102988.25;5033697;28;20477;-54
2022/07/08 01:07:48;;;;;;;8.07;2.17;;;;;;;12.02;nan;102939.13;5033690;28;20392;-54
2022/07/08 01:10:13;;;;;;;6.35;2.03;;;;;;;12.00;nan;102936.50;5034029;28;20461;-54
2022/07/08 01:12:39;;;;;;;6.00;1.90;;;;;;;12.34;nan;103014.66;5033644;28;20489;-54
2022/07/08 01:15:05;;;;;;;14.38;2.10;;;;;;;12.27;nan;102998.84;5015676;28;20432;-55
2022/07/08 01:17:42;;;;;;;5.35;2.05;;;;;;;12.13;nan;102982.19;5032048;28;20048;-53
2022/07/08 01:20:10;;;;;;;4.70;2.20;;;;;;;11.85;nan;102939.19;5033518;28;20038;-53
2022/07/08 01:22:35;;;;;;;10.23;2.00;;;;;;;12.13;nan;102983.06;5032290;28;20374;-55
2022/07/08 01:25:00;;;;;;;12.20;2.22;;;;;;;12.20;nan;103020.91;5033551;28;20124;-52
2022/07/08 01:27:26;;;;;;;10.65;2.47;;;;;;;12.17;nan;102992.72;5031661;28;20111;-53
2022/07/08 01:29:51;;;;;;;6.45;2.20;;;;;;;12.14;nan;103002.44;5033306;28;20408;-56
2022/07/08 01:32:16;;;;;;;6.32;2.08;;;;;;;11.70;nan;102934.84;5032099;28;20061;-54
2022/07/08 01:34:42;;;;;;;7.65;2.08;;;;;;;12.06;nan;102988.38;5033139;28;20045;-55
2022/07/08 01:37:07;;;;;;;8.98;1.98;;;;;;;11.71;nan;102941.03;5033164;28;20046;-50
2022/07/08 01:39:32;;;;;;;9.27;2.55;;;;;;;12.00;nan;102989.28;5032018;28;20036;-54
2022/07/08 01:41:57;;;;;;;7.30;2.35;;;;;;;11.71;nan;102941.03;5032644;28;20094;-50
2022/07/08 01:44:23;;;;;;;11.43;2.17;;;;;;;11.97;nan;102993.69;5032403;28;20067;-55
2022/07/08 01:46:48;;;;;;;6.25;2.10;;;;;;;11.55;nan;102929.63;5033019;28;20029;-55
2022/07/08 01:49:14;;;;;;;10.55;2.25;;;;;;;11.76;nan;102955.94;5032769;28;20433;-50
2022/07/08 01:51:40;;;;;;;7.40;1.95;;;;;;;11.69;nan;102941.03;5033381;28;20051;-49
2022/07/08 01:54:05;;;;;;;8.15;2.20;;;;;;;11.92;nan;102972.59;5031862;28;20473;-49
2022/07/08 01:56:31;;;;;;;6.57;2.65;;;;;;;11.57;nan;102924.34;5033033;28;20049;-51
2022/07/08 01:58:56;;;;;;;9.02;2.90;;;;;;;11.85;nan;102977.03;5032921;28;20424;-52
2022/07/08 02:01:21;;;;;;;7.30;1.98;;;;;;;11.81;nan;102975.31;5032759;28;20033;-52
2022/07/08 02:03:46;;;;;;;10.63;3.05;;;;;;;11.70;nan;102960.38;5032569;28;20121;-53
2022/07/08 02:06:12;;;;;;;8.57;1.95;;;;;;;11.78;nan;102977.06;5031693;28;20485;-50
2022/07/08 02:08:37;;;;;;;11.65;2.58;;;;;;;11.21;nan;102888.41;5032727;28;20029;-50
2022/07/08 02:13:46;;;;;;;8.10;3.17;;;;;;;11.63;nan;102967.41;5032490;28;20142;-52
2022/07/08 02:16:12;;;;;;;6.38;2.00;;;;;;;11.67;nan;102984.09;5032438;28;20065;-51
2022/07/08 02:18:37;;;;;;;7.47;2.30;;;;;;;11.44;nan;102952.50;5031063;28;20041;-52
2022/07/08 02:21:03;;;;;;;7.60;2.35;;;;;;;11.39;nan;102937.56;5032613;28;20037;-52
2022/07/08 02:23:28;;;;;;;8.10;2.47;;;;;;;11.64;nan;102978.84;5032492;28;20047;-55
2022/07/08 02:25:53;;;;;;;11.23;3.00;;;;;;;11.65;nan;102983.22;5031454;28;20045;-52
2022/07/08 02:28:19;;;;;;;9.20;2.17;;;;;;;11.67;nan;102981.47;5032186;28;20496;-52
2022/07/08 02:30:44;;;;;;;7.88;2.20;;;;;;;11.65;nan;102985.84;5032006;28;20033;-54
2022/07/08 02:33:09;;;;;;;9.10;3.38;;;;;;;11.63;nan;102977.97;5032043;28;20041;-52
2022/07/08 02:35:35;;;;;;;6.22;2.35;;;;;;;11.60;nan;102971.81;5032419;28;20041;-51
2022/07/08 02:38:00;;;;;;;8.60;2.45;;;;;;;11.59;nan;102975.31;5031060;28;20037;-52
2022/07/08 02:40:27;;;;;;;7.88;2.45;;;;;;;11.29;nan;102921.75;5031089;28;20404;-52
2022/07/08 02:42:52;;;;;;;9.65;3.03;;;;;;;11.55;nan;102971.84;5032193;28;20033;-51
2022/07/08 02:45:17;;;;;;;10.35;2.50;;;;;;;11.52;nan;102968.31;5032281;28;20048;-52
2022/07/08 02:47:43;;;;;;;8.05;2.30;;;;;;;11.27;nan;102941.09;5030978;28;20065;-53
2022/07/08 02:50:08;;;;;;;12.15;2.70;;;;;;;11.34;nan;102963.06;5032496;28;20048;-54
2022/07/08 02:52:34;;;;;;;6.43;2.40;;;;;;;11.39;nan;102966.56;5032342;28;20488;-53
2022/07/08 02:54:59;;;;;;;7.72;2.90;;;;;;;11.15;nan;102927.94;5032281;28;20464;-55
2022/07/08 02:57:24;;;;;;;7.78;2.47;;;;;;;22.55;73.26;58178.75;5030698;28;20033;-54
2022/07/08 02:59:50;;;;;;;5.20;2.10;;;;;;;22.55;73.26;58178.75;5032121;28;20076;-54
2022/07/08 03:02:15;;;;;;;9.23;2.85;;;;;;;22.55;72.40;58178.75;5030681;28;20481;-55
2022/07/08 03:04:40;;;;;;;10.00;2.55;;;;;;;;;;5032147;28;20064;-52
2022/07/08 03:07:07;;;;;;;9.07;2.42;;;;;;;22.55;100.00;58178.75;5031415;28;20038;-55
2022/07/08 03:09:32;;;;;;;8.68;2.20;;;;;;;22.55;100.00;58178.75;5031810;28;20044;-52
2022/07/08 03:11:58;;;;;;;10.75;2.75;;;;;;;-142.64;100.00;58178.75;5031931;28;20108;-52
2022/07/08 03:14:23;;;;;;;10.10;2.70;;;;;;;22.55;100.00;58178.75;5014150;28;20033;-54
2022/07/08 03:16:48;;;;;;;8.15;2.50;;;;;;;22.55;100.00;58178.75;5031781;28;20037;-54
2022/07/08 03:19:14;;;;;;;8.70;2.22;;;;;;;22.55;100.00;58178.75;5031458;28;20484;-53
2022/07/08 03:21:39;;;;;;;4.88;2.13;;;;;;;22.55;100.00;58178.75;5031984;28;20045;-54
2022/07/08 03:24:05;;;;;;;5.65;2.00;;;;;;;-142.64;100.00;58178.75;5031578;28;20592;-53
2022/07/08 03:26:30;;;;;;;4.72;2.22;;;;;;;;;;5031682;28;20042;-54
2022/07/08 03:28:55;;;;;;;6.50;2.17;;;;;;;22.55;100.00;58178.75;5030413;28;20033;-54
2022/07/08 03:31:21;;;;;;;6.18;2.05;;;;;;;22.55;100.00;58178.75;5014005;28;20128;-55
2022/07/08 03:33:46;;;;;;;8.10;2.10;;;;;;;22.55;100.00;58178.75;5031772;28;20053;-50
2022/07/08 03:36:11;;;;;;;8.10;2.70;;;;;;;22.55;0.00;58178.75;5030831;28;20048;-54
2022/07/08 03:38:36;;;;;;;7.50;2.22;;;;;;;22.55;100.00;58178.75;5031866;28;20057;-52
2022/07/08 03:41:20;;;;;;;7.45;2.65;;;;;;;22.55;100.00;58178.75;5033706;28;20467;-54
2022/07/08 03:43:48;;;;;;;4.95;2.00;;;;;;;;;;5035324;28;20041;-54
2022/07/08 03:46:13;;;;;;;8.88;2.67;;;;;;;22.55;100.00;58178.75;5035594;28;20104;-53
2022/07/08 03:48:39;;;;;;;7.68;2.70;;;;;;;22.55;73.26;58178.75;5034258;28;20565;-51
2022/07/08 03:51:04;;;;;;;8.50;2.58;;;;;;;;;;5035279;28;20120;-52
2022/07/08 03:53:29;;;;;;;8.02;2.53;;;;;;;;;;5034330;28;20033;-53
2022/07/08 03:55:55;;;;;;;9.25;2.33;;;;;;;;;;5035143;28;20041;-50
2022/07/08 03:58:20;;;;;;;8.00;2.80;;;;;;;;;;5035083;28;20122;-53
2022/07/08 04:00:45;;;;;;;10.87;2.70;;;;;;;;;;5034901;28;20419;-57
2022/07/08 04:03:10;;;;;;;9.65;2.42;;;;;;;;;;5034793;28;20638;-52
2022/07/08 04:05:36;;;;;;;13.07;3.35;;;;;;;;;;5035306;28;20033;-50
2022/07/08 04:08:01;;;;;;;7.22;3.45;;;;;;;;;;5033691;28;20026;-51
2022/07/08 04:10:26;;;;;;;12.50;3.20;;;;;;;;;;5034871;28;20025;-50
2022/07/08 04:12:52;;;;;;;8.10;2.90;;;;;;;;;;5034806;28;20042;-57
2022/07/08 04:15:17;;;;;;;10.47;3.53;;;;;;;;;;5034647;28;20037;-53
2022/07/08 04:17:42;;;;;;;10.68;2.75;;;;;;;;;;5034772;28;20280;-53
2022/07/08 04:20:08;;;;;;;11.77;3.13;;;;;;;;;;5034818;28;20487;-52
2022/07/08 04:22:33;;;;;;;11.55;3.00;;;;;;;;;;5034361;28;20443;-53
2022/07/08 04:24:58;;;;;;;8.57;2.80;;;;;;;;;;5034607;28;20048;-55
2022/07/08 04:27:23;;;;;;;14.27;3.40;;;;;;;;;;5033081;28;20292;-55
2022/07/08 04:29:48;;;;;;;9.53;2.90;;;;;;;;;;5034301;28;20280;-54
2022/07/08 04:32:14;;;;;;;6.10;2.70;;;;;;;;;;5033235;28;20395;-54
2022/07/08 04:34:39;;;;;;;8.38;2.83;;;;;;;;;;5034349;28;20038;-55
2022/07/08 04:37:04;;;;;;;10.73;2.77;;;;;;;22.55;68.19;58178.75;5034450;28;20124;-54
2022/07/08 04:39:29;;;;;;;6.72;2.53;;;;;;;;;;5034376;28;20311;-54
2022/07/08 04:41:55;;;;;;;9.23;2.80;;;;;;;;;;5034139;28;20132;-52
2022/07/08 04:44:20;;;;;;;8.57;2.90;;;;;;;;;;5032635;28;20327;-53
2022/07/08 04:46:45;;;;;;;11.37;3.07;;;;;;;;;;5033980;28;20292;-50
2022/07/08 04:49:11;;;;;;;8.60;3.05;;;;;;;;;;5034226;28;20358;-55
2022/07/08 04:51:36;;;;;;;10.73;3.05;;;;;;;;;;5032116;28;20501;-53
2022/07/08 04:54:01;;;;;;;6.80;2.90;;;;;;;;;;5033522;28;20489;-50
2022/07/08 04:56:26;;;;;;;10.40;3.53;;;;;;;;;;5033935;28;20112;-54
2022/07/08 04:58:51;;;;;;;9.60;2.83;;;;;;;;;;5033737;28;20748;-56
2022/07/08 05:01:18;;;;;;;8.70;3.03;;;;;;;;;;5033636;28;20704;-55
2022/07/08 05:03:43;;;;;;;6.68;2.95;;;;;;;;;;5033389;28;20029;-51
2022/07/08 05:06:08;;;;;;;9.00;3.83;;;;;;;;;;5032417;28;20087;-56
2022/07/08 05:08:33;;;;;;;10.13;3.00;;;;;;;;;;5033182;28;20033;-54
2022/07/08 05:10:59;;;;;;;14.27;3.20;;;;;;;;;;5033126;28;20283;-55
2022/07/08 05:13:24;;;;;;;10.70;2.97;;;;;;;;;;5033415;28;20033;-56
2022/07/08 05:15:49;;;;;;;10.70;2.67;;;;;;;;;;5033245;28;20300;-55
2022/07/08 05:18:14;;;;;;;9.87;3.03;;;;;;;;;;5033154;28;20347;-54
2022/07/08 05:20:39;;;;;;;13.57;3.17;;;;;;;;;;5033141;28;20280;-52
2022/07/08 05:23:05;;;;;;;9.17;2.60;;;;;;;;;;5032628;28;20291;-54
2022/07/08 05:25:30;;;;;;;11.10;2.87;;;;;;;;;;5033111;28;20288;-52
2022/07/08 05:27:55;;;;;;;15.27;3.60;;;;;;;;;;5032712;28;20296;-56
2022/07/08 05:30:20;;;;;;;7.73;2.60;;;;;;;;;;5032815;28;20286;-54
2022/07/08 05:32:45;;;;;;;9.63;2.70;;;;;;;;;;5032740;28;20037;-50
2022/07/08 05:35:11;;;;;;;7.28;2.65;;;;;;;;;;5032676;28;20107;-53
2022/07/08 05:37:38;;;;;;;12.40;2.67;;;;;;;;;;5031582;28;20072;-51
2022/07/08 05:40:06;;;;;;;5.70;2.28;;;;;;;;;;5032697;28;20064;-54
2022/07/08 05:42:31;;;;;;;6.80;2.22;;;;;;;22.55;79.99;58178.75;5031437;28;20037;-56
2022/07/08 05:44:56;;;;;;;11.55;2.63;;;;;;;;;;5030431;28;20558;-55
2022/07/08 05:47:22;;;;;;;7.28;2.38;;;;;;;;;;5031643;28;20033;-56
2022/07/08 05:49:47;;;;;;;13.80;2.38;;;;;;;;;;5030728;28;20049;-53
2022/07/08 05:52:13;;;;;;;11.93;2.97;;;;;;;;;;5030961;28;20113;-54
2022/07/08 05:54:38;;;;;;;9.57;3.05;;;;;;;;;;5031145;28;20298;-50
2022/07/08 05:57:04;;;;;;;10.00;2.33;;;;;;;;;;5031288;28;20033;-51
2022/07/08 05:59:29;;;;;;;7.93;2.70;;;;;;;;;;5030367;28;20038;-53
2022/07/08 06:01:55;;;;;;;10.03;2.90;;;;;;;;;;5030867;28;20091;-53
2022/07/08 06:04:20;;;;;;;8.25;2.55;;;;;;;;;;5030562;28;20439;-53
2022/07/08 06:06:46;;;;;;;6.93;2.35;;;;;;;;;;5031883;28;20033;-53
2022/07/08 06:09:11;;;;;;;11.75;2.83;;;;;;;;;;5031474;28;20076;-54
2022/07/08 06:11:37;;;;;;;7.97;2.25;;;;;;;;;;5032358;28;20052;-55
2022/07/08 06:14:02;;;;;;;10.25;2.22;;;;;;;;;;5031137;28;20025;-53
2022/07/08 06:16:28;;;;;;;9.85;2.28;;;;;;;;;;5031074;28;20033;-50
2022/07/08 06:18:53;;;;;;;10.48;2.95;;;;;;;15.90;nan;103071.28;5031353;28;20404;-54
2022/07/08 06:21:19;;;;;;;11.63;2.45;;;;;;;16.11;nan;103078.81;5031597;28;20531;-54
2022/07/08 06:23:44;;;;;;;9.18;2.15;;;;;;;16.31;nan;103068.66;5031040;28;20071;-55
2022/07/08 06:26:11;;;;;;;8.98;2.38;;;;;;;16.31;nan;103035.91;5032185;28;20394;-54
2022/07/08 06:28:36;;;;;;;10.88;3.03;;;;;;;16.71;nan;103089.09;5031996;28;20457;-53
2022/07/08 06:31:02;;;;;;;6.50;2.05;;;;;;;16.83;nan;103089.72;5032206;28;20132;-54
2022/07/08 06:33:28;;;;;;;4.13;1.50;;;;;;;16.96;nan;103094.75;5032065;28;20069;-54
2022/07/08 06:35:53;;;;;;;9.27;2.20;;;;;;;16.98;nan;103075.19;5032147;28;20037;-54
2022/07/08 06:38:18;;;;;;;10.07;2.47;;;;;;;17.20;nan;103091.50;5032211;28;20128;-53
2022/07/08 06:40:44;;;;;;;7.95;2.00;;;;;;;17.28;nan;103101.03;5032160;28;20507;-55
2022/07/08 06:43:09;;;;;;;6.50;2.25;;;;;;;17.09;nan;103046.53;5032173;28;20034;-53
2022/07/08 06:45:35;;;;;;;9.43;1.83;;;;;;;17.66;nan;103100.09;5031923;28;20136;-55
2022/07/08 06:48:01;;;;;;;5.88;2.17;;;;;;;17.76;nan;103104.28;5032178;28;20041;-49
2022/07/08 06:50:27;;;;;;;14.15;2.90;;;;;;;17.93;nan;103119.81;5032009;28;20030;-55
2022/07/08 06:52:53;;;;;;;10.60;2.28;;;;;;;17.81;nan;103051.75;5030535;28;20037;-55
2022/07/08 06:55:20;;;;;;;4.55;1.40;;;;;;;18.32;nan;103121.38;5032093;28;20041;-58
2022/07/08 06:57:50;;;;;;;7.10;1.83;;;;;;;18.46;nan;103128.97;5030543;28;20026;-53
2022/07/08 07:00:17;;;;;;;;;;;;;;;18.54;nan;103124.31;5030627;28;20037;-49
2022/07/08 07:02:42;;;;;;;10.23;2.15;;;;;;;18.63;nan;103120.50;5031734;28;19925;-52
2022/07/08 07:05:08;;;;;;;10.63;2.58;;;;;;;18.40;nan;103057.16;5030851;28;20374;-51
2022/07/08 07:07:34;;;;;;;5.55;1.48;;;;;;;18.82;nan;103122.59;5031398;28;20092;-51
2022/07/08 07:10:00;;;;;;;6.78;1.80;;;;;;;18.80;nan;103119.06;5031944;28;20061;-55
2022/07/08 07:12:26;;;;;;;5.50;1.65;;;;;;;18.99;nan;103108.72;5031830;28;20030;-53
2022/07/08 07:14:51;;;;;;;5.80;1.75;;;;;;;19.15;nan;103112.63;5035477;28;20119;-51
2022/07/08 07:17:19;;;;;;;9.85;2.15;;;;;;;19.37;nan;103115.47;5055889;28;20566;-54
2022/07/08 07:19:49;;;;;;;5.18;1.55;;;;;;;19.54;nan;103122.03;5055491;28;20442;-53
2022/07/08 07:22:16;;;;;;;10.30;1.83;;;;;;;19.51;nan;103130.16;5051438;28;20032;-55
2022/07/08 07:24:42;;;;;;;6.97;1.90;;;;;;;19.56;nan;103120.19;5054336;28;20128;-53
2022/07/08 07:27:08;;;;;;;7.95;2.03;;;;;;;19.62;nan;103125.31;5055217;28;20144;-53
2022/07/08 07:29:34;;;;;;;9.50;1.80;;;;;;;19.39;nan;103069.13;5054066;28;20112;-57
2022/07/08 07:31:59;;;;;;;6.38;1.48;;;;;;;19.62;nan;103108.41;5045510;28;20025;-51
2022/07/08 07:34:25;;;;;;;4.38;1.63;;;;;;;19.54;nan;103071.28;5034970;28;20037;-54
2022/07/08 07:36:50;;;;;;;6.97;1.92;;;;;;;20.01;nan;103128.41;5035132;28;20036;-53
2022/07/08 07:39:16;;;;;;;7.68;1.70;;;;;;;19.73;nan;103071.50;5035465;28;20148;-53
2022/07/08 07:41:41;;;;;;;3.58;1.08;;;;;;;19.89;nan;103091.41;5034472;28;20040;-47
2022/07/08 07:44:10;;;;;;;4.80;1.65;;;;;;;20.26;nan;103141.78;5035423;28;20037;-52
2022/07/08 07:46:36;;;;;;;5.57;1.88;;;;;;;20.12;nan;103080.75;5035072;28;20036;-53
2022/07/08 07:49:02;;;;;;;6.72;1.77;;;;;;;20.59;nan;103135.19;5035215;28;20034;-53
2022/07/08 07:51:28;;;;;;;6.22;2.22;;;;;;;20.70;nan;103146.34;5035417;28;20044;-51
2022/07/08 07:53:53;;;;;;;5.93;1.35;;;;;;;20.58;nan;103089.75;5033679;28;20477;-49
2022/07/08 07:56:19;;;;;;;7.90;1.80;;;;;;;21.06;nan;103141.38;5035073;28;20036;-49
2022/07/08 07:58:44;;;;;;;7.55;1.45;;;;;;;21.70;nan;103138.75;5050703;28;20095;-52
2022/07/08 08:01:10;;;;;;;5.47;1.40;;;;;;;22.26;nan;103145.22;5034882;28;20076;-51
2022/07/08 08:03:35;;;;;;;5.80;1.95;;;;;;;22.08;nan;103143.34;5034612;28;20029;-52
2022/07/08 08:06:01;;;;;;;5.60;1.40;;;;;;;22.11;nan;103137.84;5035186;28;20476;-52
2022/07/08 08:08:31;;;;;;;4.10;1.33;;;;;;;21.98;nan;103087.53;5034656;28;20041;-54
2022/07/08 08:10:59;;;;;;;5.35;1.92;;;;;;;22.62;nan;103147.16;5049434;28;20473;-53
2022/07/08 08:13:25;;;;;;;5.45;1.30;;;;;;;22.63;nan;103140.84;5035398;28;20439;-55
2022/07/08 08:15:51;;;;;;;4.85;2.03;;;;;;;22.62;nan;103128.38;5051780;28;20127;-52
2022/07/08 08:18:16;;;;;;;3.90;1.67;;;;;;;23.26;nan;103142.31;5053875;28;20432;-51
2022/07/08 08:20:42;;;;;;;5.43;1.40;;;;;;;23.33;nan;103143.72;5052226;28;20063;-52
2022/07/08 08:23:08;;;;;;;3.50;1.15;;;;;;;23.47;nan;103144.81;5054280;28;20064;-52
2022/07/08 08:25:34;;;;;;;4.57;2.00;;;;;;;23.99;nan;103137.63;5036659;28;20373;-53
2022/07/08 08:27:59;;;;;;;2.88;1.20;;;;;;;23.86;nan;103111.44;5053120;28;20052;-53
2022/07/08 08:30:26;;;;;;;5.30;1.58;;;;;;;24.32;nan;103158.34;5054355;28;20500;-54
2022/07/08 08:32:51;;;;;;;4.88;1.20;;;;;;;24.62;nan;103154.00;5054000;28;20057;-54
2022/07/08 08:35:17;;;;;;;4.35;1.50;;;;;;;24.80;nan;103162.88;5054050;28;20041;-55
2022/07/08 08:37:42;;;;;;;4.82;1.38;;;;;;;24.38;nan;103153.50;5054001;28;20041;-51
2022/07/08 08:40:10;;;;;;;2.72;1.20;;;;;;;24.94;nan;103168.41;5053950;28;20059;-53
2022/07/08 08:42:36;;;;;;;4.40;1.27;;;;;;;25.10;nan;103107.31;5054102;28;20044;-54
2022/07/08 08:45:03;;;;;;;5.85;1.15;;;;;;;25.39;nan;103132.56;5054057;28;20029;-52
2022/07/08 08:47:33;;;;;;;2.92;1.10;;;;;;;25.66;nan;103166.88;5052025;28;20495;-51
2022/07/08 08:52:52;;;;;;;2.65;1.33;;;;;;;25.22;nan;103129.97;5050807;28;20048;-53
2022/07/08 08:55:24;;;;;;;5.05;1.67;;;;;;;25.57;nan;103126.97;5048780;28;20170;-50
2022/07/08 08:57:50;;;;;;;3.08;1.17;;;;;;;25.62;nan;103124.00;5048536;28;20145;-51
2022/07/08 09:00:15;;;;;;;3.88;1.83;;;;;;;25.71;nan;103140.50;5049054;28;20135;-51
2022/07/08 09:02:41;;;;;;;1.73;1.00;;;;;;;26.09;nan;103170.59;5048701;28;20045;-50
2022/07/08 09:05:07;;;;;;;3.10;1.23;;;;;;;26.15;nan;103178.31;5050760;28;20039;-50
2022/07/08 09:07:32;;;;;;;4.30;1.30;;;;;;;26.38;nan;103173.34;5052481;28;20049;-52
2022/07/08 09:09:57;;;;;;;3.38;1.27;;;;;;;26.87;nan;103177.41;5052055;28;20415;-51
2022/07/08 09:12:25;;;;;;;3.95;1.20;;;;;;;26.57;nan;103090.19;5050620;28;20060;-52
2022/07/08 09:14:51;;;;;;;5.40;1.08;;;;;;;27.02;nan;103180.97;5051831;28;20043;-50
2022/07/08 09:17:21;;;;;;;2.13;1.00;;;;;;;27.08;nan;103175.16;5050811;28;20043;-57
2022/07/08 09:19:50;;;;;;;3.75;1.00;;;;;;;26.96;nan;103140.81;5051840;28;20064;-58
2022/07/08 09:22:16;;;;;;;3.13;1.20;;;;;;;26.38;nan;103116.63;5051753;28;20036;-56
2022/07/08 09:24:43;;;;;;;5.43;1.35;;;;;;;27.02;nan;103165.63;5049988;28;20037;-58
2022/07/08 09:27:10;;;;;;;2.78;1.27;;;;;;;26.06;nan;103176.19;5051656;28;20073;-56
2022/07/08 09:29:39;;;;;;;1.63;0.85;;;;;;;25.76;nan;103179.81;5051815;28;20119;-56
2022/07/08 09:32:15;;;;;;;2.58;1.33;;;;;;;25.27;nan;103122.50;5051617;28;20053;-59
2022/07/08 09:34:41;;;;;;;3.75;1.45;;;;;;;25.76;nan;103155.56;5050177;28;20036;-57
2022/07/08 09:37:17;;;;;;;2.95;1.20;;;;;;;26.17;nan;103179.13;5051731;28;20116;-56
2022/07/08 09:39:43;;;;;;;5.05;1.20;;;;;;;26.28;nan;103133.41;5051502;28;20558;-56
2022/07/08 09:42:09;;;;;;;2.15;1.00;;;;;;;26.16;nan;103131.47;5051641;28;20485;-55
2022/07/08 09:44:35;;;;;;;4.28;1.20;;;;;;;26.19;nan;103133.09;5051445;28;20037;-53
2022/07/08 09:47:08;;;;;;;2.63;0.90;;;;;;;26.71;nan;103126.16;5050548;28;20045;-55
2022/07/08 09:49:34;;;;;;;5.30;1.13;;;;;;;27.31;nan;103185.31;5050602;28;20036;-56
2022/07/08 09:52:00;;;;;;;3.30;1.05;;;;;;;27.51;nan;103175.91;5050684;28;20040;-55
2022/07/08 09:54:28;;;;;;;3.40;0.93;;;;;;;26.91;nan;103189.78;5051129;28;20079;-56
2022/07/08 09:56:58;;;;;;;2.33;0.75;;;;;;;26.65;nan;103131.94;5051026;28;20081;-53
2022/07/08 09:59:23;;;;;;;4.35;1.00;;;;;;;27.03;nan;103197.06;5051124;28;20297;-57
2022/07/08 10:01:51;;;;;;;4.10;0.90;;;;;;;27.38;nan;103183.94;5051505;28;20116;-57
2022/07/08 10:04:17;;;;;;;3.75;1.02;;;;;;;27.80;nan;103185.63;5049941;28;20403;-57
2022/07/08 10:06:42;;;;;;;1.35;0.80;;;;;;;27.98;nan;103189.78;5050230;28;20415;-57
2022/07/08 10:09:08;;;;;;;7.25;1.00;;;;;;;27.22;nan;103137.25;5033916;28;20052;-57
2022/07/08 10:11:33;;;;;;;1.42;0.95;;;;;;;27.27;nan;103179.25;5049567;28;20037;-61
2022/07/08 10:13:59;;;;;;;5.45;1.58;;;;;;;27.42;nan;103134.13;5049488;28;20147;-58
2022/07/08 10:16:24;;;;;;;2.33;0.82;;;;;;;28.20;nan;103190.06;5051066;28;20037;-60
2022/07/08 10:18:51;;;;;;;5.43;1.30;;;;;;;28.21;nan;103137.63;5050853;28;20049;-61
2022/07/08 10:21:20;;;;;;;2.38;1.20;;;;;;;28.74;nan;103171.75;5050653;28;20139;-61
2022/07/08 10:23:49;;;;;;;2.17;0.80;;;;;;;27.99;nan;103202.38;5049411;28;20403;-59
2022/07/08 10:26:27;;;;;;;1.05;0.50;;;;;;;27.87;nan;103186.97;5049283;28;20503;-55
2022/07/08 10:29:07;;;;;;;2.85;0.65;;;;;;;27.79;nan;103138.75;5050920;28;20045;-60
2022/07/08 10:31:42;;;;;;;1.70;0.60;;;;;;;27.69;nan;103161.16;5049364;28;20427;-63
2022/07/08 10:34:08;;;;;;;2.30;0.70;;;;;;;28.38;nan;103148.13;5050137;28;20033;-62
2022/07/08 10:36:50;;;;;;;1.25;0.57;;;;;;;28.48;nan;103135.69;5050382;28;20071;-59
2022/07/08 10:39:30;;;;;;;1.73;0.82;;;;;;;28.67;nan;103192.13;5050720;28;20032;-58
2022/07/08 10:41:57;;;;;;;2.20;0.80;;;;;;;28.40;nan;103159.72;5050494;28;20036;-60
2022/07/08 10:44:45;;;;;;;2.78;0.70;;;;;;;29.12;nan;103178.91;5050730;28;20032;-59
2022/07/08 10:47:11;;;;;;;2.17;0.85;;;;;;;29.16;nan;103139.75;5050565;28;20431;-57
2022/07/08 10:49:40;;;;;;;3.17;0.68;;;;;;;28.30;nan;103169.50;5050234;28;20033;-60
2022/07/08 10:52:06;;;;;;;1.83;0.60;;;;;;;28.49;nan;103167.19;5049096;28;20036;-58
2022/07/08 10:54:36;;;;;;;2.85;0.80;;;;;;;28.41;nan;103168.72;5050058;28;20037;-58
2022/07/08 10:57:07;;;;;;;1.80;0.80;;;;;;;28.54;nan;103174.13;5050547;28;20036;-55
2022/07/08 10:59:38;;;;;;;3.72;0.90;;;;;;;28.30;nan;103155.06;5050827;28;20155;-56
2022/07/08 11:02:10;;;;;;;3.20;0.80;;;;;;;28.53;nan;103192.22;5050395;28;20056;-56
2022/07/08 11:04:36;;;;;;;3.10;0.90;;;;;;;28.92;nan;103175.84;5050187;28;20124;-59
2022/07/08 11:07:16;;;;;;;4.30;0.85;;;;;;;29.28;nan;103184.94;5050066;28;20120;-54
2022/07/08 11:09:42;;;;;;;;;;;;;;;29.58;nan;103171.81;5049679;28;20040;-55
2022/07/08 11:12:15;;;;;;;2.08;0.90;;;;;;;29.12;nan;103187.06;5050592;28;19913;-59
2022/07/08 11:14:51;;;;;;;1.27;0.73;;;;;;;29.19;nan;103185.63;5050837;28;20079;-62
2022/07/08 11:17:20;;;;;;;1.45;0.90;;;;;;;29.45;nan;103180.00;5049223;28;20434;-58
2022/07/08 11:19:47;;;;;;;3.83;1.17;;;;;;;29.50;nan;103168.81;5050026;28;20036;-55
2022/07/08 11:22:13;;;;;;;2.22;1.00;;;;;;;30.07;nan;103161.63;5049877;28;20029;-59
2022/07/08 11:24:40;;;;;;;2.67;1.40;;;;;;;29.78;nan;103113.25;5047369;28;20508;-59
2022/07/08 11:27:06;;;;;;;2.47;0.90;;;;;;;29.77;nan;103122.41;5048864;28;20052;-60
2022/07/08 11:29:32;;;;;;;2.75;1.08;;;;;;;29.07;nan;103118.75;5048722;28;20075;-61
2022/07/08 11:31:59;;;;;;;3.08;1.30;;;;;;;30.09;nan;103164.22;5049187;28;20472;-60
2022/07/08 11:34:27;;;;;;;3.63;1.23;;;;;;;30.24;nan;103176.59;5047871;28;20033;-61
2022/07/08 11:36:56;;;;;;;3.25;1.23;;;;;;;30.35;nan;103175.75;5049661;28;20045;-58
2022/07/08 11:39:22;;;;;;;3.78;1.10;;;;;;;30.08;nan;103110.88;5049761;28;20032;-60
2022/07/08 11:41:47;;;;;;;7.45;2.53;;;;;;;30.52;nan;103189.75;5048795;28;20041;-58
2022/07/08 11:44:13;;;;;;;3.05;1.50;;;;;;;30.66;nan;103154.16;5049950;28;20033;-60
2022/07/08 11:46:49;;;;;;;4.30;1.35;;;;;;;30.75;nan;103181.59;5049852;28;20028;-59
2022/07/08 11:49:15;;;;;;;4.53;1.60;;;;;;;31.23;nan;103166.72;5050115;28;20032;-61
2022/07/08 11:51:45;;;;;;;3.13;1.20;;;;;;;30.99;nan;103185.06;5049096;28;20037;-59
2022/07/08 11:54:11;;;;;;;4.13;1.13;;;;;;;30.60;nan;103187.28;5049817;28;20123;-61
2022/07/08 11:56:37;;;;;;;4.25;1.42;;;;;;;30.59;nan;103152.91;5050001;28;20037;-62
2022/07/08 11:59:02;;;;;;;5.13;1.65;;;;;;;30.39;nan;103167.25;5049469;28;20110;-60
2022/07/08 12:01:28;;;;;;;5.32;1.23;;;;;;;31.15;nan;103180.94;5049641;28;20443;-57
2022/07/08 12:03:53;;;;;;;4.30;1.30;;;;;;;31.19;nan;103181.56;5053218;28;20439;-60
2022/07/08 12:06:26;;;;;;;4.80;1.08;;;;;;;31.10;nan;103130.63;5050917;28;20411;-57
2022/07/08 12:08:52;;;;;;;2.28;1.20;;;;;;;31.23;nan;103188.50;5053139;28;20064;-58
2022/07/08 12:11:20;;;;;;;5.22;1.30;;;;;;;31.00;nan;103176.75;5052904;28;20059;-57
2022/07/08 12:13:50;;;;;;;7.07;1.80;;;;;;;31.29;nan;103165.34;5052755;28;20029;-58